Airfield :
LOGIN :

Register | Disclaimer

   EN    FR    IT 

 










Legend :    VFR   Marginal VFR   IFR   Intensive IFR   Very Intensive IFR
Visi :
Ceiling :
>= 8 km
>= 3000ft
5 to 8 km
1000 to 3000 ft
1500m to 5 km
500 to 1000 ft
800 to 1500m
200 to 500 ft
< 800m
< 200 ft
Symbols :   Thunderstorms  Fog  Heavy snow  Heavy precipitations  Wind > 20 kt
SIGMETs :     Misc.  Thunderstorms  Icing  Turbulence  Mountain Waves  Volcanic Ashes







- Airport Elevation : 1197 ft
- IATA code : SPM


ETAD - Spangdahlem Ab

CURRENT METAR :
  • 281558Z AUTO 22015KT 9999 CLR 21/10 A2998 RMK AO2 SLP137 T02090101 TSNO $

EXPIRED METARs :
  • 281458Z AUTO 23015G21KT 9999 FEW044 SCT055 21/11 A2998 RMK AO2 SLP137 T02060107 53002 TSNO $
  • 281442Z AUTO 25014G18KT 9999 SCT044 SCT060 BKN170 20/10 A2998 RMK AO2 SLP137 TSNO $
  • 281436Z AUTO 23012G18KT 9999 FEW044 BKN060 BKN180 20/11 A2998 RMK AO2 SLP137 TSNO $
  • 281358Z AUTO 25012KT 9999 FEW060 SCT150 SCT180 20/11 A2998 RMK AO2 SLP137 T02010106 TSNO $

TAF TAF ETAD
Valid from the 28 at 03:00 until the 29 at 09:00 UTC


280302Z 2803/2909 24006KT 9999 BKN030 QNH2989INS
BECMG 2811/2812 25012KT 9999 SCT040 QNH2998INS
TEMPO 2812/2814 25012G20KT
BECMG 2816/2817 25009KT 9000 -SHRA BKN040 QNH2999INS
BECMG 2904/2905 21012G20KT 9000 -SHRA BKN040 QNH2999INS TX21/2815Z TN10/2803Z
No reported NOTAMs for that airfield.



MET'MAP, your aeronautical weather chart ! - Copyright ORBIFLY December 2007 - Disclaimer

ORBIFLY MET'MAP TEAM :

Programming & Development : Alexandra Zaïnal
Concept & Development : Baudouin d'Aumeries
Co-Development & Prog : Marc-Olivier Méhu
Technical & hardware support : Manuel Goepfert

Contact : metmap@orbifly.com




SOURCES & CREDITS :

   NOAA